createdAt,value
2022-09-26T00:00:08.092Z,1003.33
2022-09-26T00:01:08.181Z,1003.31
2022-09-26T00:02:08.121Z,1003.32
2022-09-26T00:03:08.070Z,1003.25
2022-09-26T00:04:08.055Z,1003.25
2022-09-26T00:05:08.024Z,1003.15
2022-09-26T00:06:08.038Z,1003.19
2022-09-26T00:07:07.997Z,1003.17
2022-09-26T00:08:07.980Z,1003.16
2022-09-26T00:09:07.975Z,1003.13
2022-09-26T00:10:07.966Z,1003.11
2022-09-26T00:11:07.944Z,1003.19
2022-09-26T00:12:07.962Z,1003.17
2022-09-26T00:13:07.923Z,1003.10
2022-09-26T00:14:07.919Z,1003.09
2022-09-26T00:15:07.907Z,1003.06
2022-09-26T00:16:07.896Z,1003.07
2022-09-26T00:17:07.956Z,1003.05
2022-09-26T00:18:07.873Z,1003.05
2022-09-26T00:19:07.860Z,1003.06
2022-09-26T00:20:07.851Z,1003.01
2022-09-26T00:21:07.860Z,1003.02
2022-09-26T00:22:07.833Z,1003.04
2022-09-26T00:23:07.857Z,1003.01
2022-09-26T00:24:07.845Z,1003.05
2022-09-26T00:25:07.799Z,1003.04
2022-09-26T00:26:07.787Z,1003.02
2022-09-26T00:27:07.769Z,1002.97
2022-09-26T00:28:07.790Z,1002.96
2022-09-26T00:29:07.772Z,1002.97
2022-09-26T00:30:07.755Z,1002.93
2022-09-26T00:31:07.868Z,1002.96
2022-09-26T00:32:07.723Z,1002.98
2022-09-26T00:33:07.717Z,1002.94
2022-09-26T00:34:07.702Z,1002.93
2022-09-26T00:35:07.680Z,1002.98
2022-09-26T00:36:07.669Z,1002.94
2022-09-26T00:37:07.677Z,1002.94
2022-09-26T00:38:07.650Z,1002.93
2022-09-26T00:39:07.644Z,1002.93
2022-09-26T00:40:07.620Z,1002.91
2022-09-26T00:41:07.640Z,1002.86
2022-09-26T00:42:07.611Z,1002.83
2022-09-26T00:43:07.590Z,1002.86
2022-09-26T00:44:07.605Z,1002.85
2022-09-26T00:45:07.592Z,1002.82
2022-09-26T00:46:07.755Z,1002.77
2022-09-26T00:47:07.562Z,1002.73
2022-09-26T00:48:07.575Z,1002.74
2022-09-26T00:49:07.529Z,1002.71
2022-09-26T00:50:07.531Z,1002.66
2022-09-26T00:51:07.525Z,1002.64
2022-09-26T00:52:07.503Z,1002.62
2022-09-26T00:53:07.488Z,1002.62
2022-09-26T00:54:07.468Z,1002.61
2022-09-26T00:55:07.473Z,1002.57
2022-09-26T00:56:07.467Z,1002.54
2022-09-26T00:57:07.434Z,1002.54
2022-09-26T00:58:07.447Z,1002.56
2022-09-26T00:59:07.438Z,1002.53
2022-09-26T01:00:07.438Z,1002.50
2022-09-26T01:01:07.457Z,1002.47
2022-09-26T01:02:07.544Z,1002.46
2022-09-26T01:03:07.385Z,1002.45
2022-09-26T01:04:07.360Z,1002.41
2022-09-26T01:05:07.354Z,1002.46
2022-09-26T01:06:07.344Z,1002.43
2022-09-26T01:07:07.335Z,1002.47
2022-09-26T01:08:07.321Z,1002.45
2022-09-26T01:09:07.319Z,1002.42
2022-09-26T01:10:07.310Z,1002.38
2022-09-26T01:11:07.285Z,1002.37
2022-09-26T01:12:07.276Z,1002.36
2022-09-26T01:13:07.272Z,1002.33
2022-09-26T01:14:07.262Z,1002.32
2022-09-26T01:15:07.244Z,1002.26
2022-09-26T01:16:07.440Z,1002.30
2022-09-26T01:17:07.323Z,1002.27
2022-09-26T01:18:07.215Z,1002.24
2022-09-26T01:19:07.208Z,1002.23
2022-09-26T01:20:07.193Z,1002.24
2022-09-26T01:21:07.168Z,1002.20
2022-09-26T01:22:07.184Z,1002.23
2022-09-26T01:23:07.160Z,1002.19
2022-09-26T01:24:07.153Z,1002.19
2022-09-26T01:25:07.136Z,1002.14
2022-09-26T01:26:07.137Z,1002.17
2022-09-26T01:27:07.118Z,1002.12
2022-09-26T01:28:07.100Z,1002.13
2022-09-26T01:29:07.099Z,1002.11
2022-09-26T01:30:07.083Z,1002.13
2022-09-26T01:31:07.142Z,1002.11
2022-09-26T01:32:07.075Z,1002.15
2022-09-26T01:33:07.053Z,1002.12
2022-09-26T01:34:07.038Z,1002.10
2022-09-26T01:35:07.028Z,1002.07
2022-09-26T01:36:07.005Z,1002.07
2022-09-26T01:37:06.999Z,1002.05
2022-09-26T01:38:06.986Z,1002.02
2022-09-26T01:39:06.976Z,1002.01
2022-09-26T01:40:06.967Z,1002.03
2022-09-26T01:41:06.966Z,1002.02
2022-09-26T01:42:06.935Z,1002.03
2022-09-26T01:43:06.950Z,1002.01
2022-09-26T01:44:06.921Z,1001.96
2022-09-26T01:45:06.924Z,1001.97
2022-09-26T01:46:07.077Z,1001.97
2022-09-26T01:47:06.928Z,1001.97
2022-09-26T01:48:06.892Z,1001.98
2022-09-26T01:49:06.880Z,1001.98
2022-09-26T01:50:06.862Z,1001.97
2022-09-26T01:51:06.856Z,1001.99
2022-09-26T01:52:06.846Z,1001.99
2022-09-26T01:53:06.830Z,1001.99
2022-09-26T01:54:06.899Z,1002.03
2022-09-26T01:55:06.792Z,1001.96
2022-09-26T01:56:06.787Z,1001.94
2022-09-26T01:57:06.802Z,1001.97
2022-09-26T01:58:06.755Z,1002.01
2022-09-26T01:59:06.756Z,1001.90
2022-09-26T02:00:06.740Z,1001.94
2022-09-26T02:01:06.806Z,1001.89
2022-09-26T02:02:06.851Z,1001.85
2022-09-26T02:03:06.716Z,1001.83
2022-09-26T02:04:06.711Z,1001.87
2022-09-26T02:05:06.697Z,1001.87
2022-09-26T02:06:06.676Z,1001.82
2022-09-26T02:07:06.683Z,1001.81
2022-09-26T02:08:06.659Z,1001.86
2022-09-26T02:09:06.681Z,1001.84
2022-09-26T02:10:06.631Z,1001.88
2022-09-26T02:11:06.618Z,1001.87
2022-09-26T02:12:06.605Z,1001.84
2022-09-26T02:13:06.607Z,1001.81
2022-09-26T02:14:06.594Z,1001.80
2022-09-26T02:15:06.578Z,1001.77
2022-09-26T02:16:06.620Z,1001.79
2022-09-26T02:17:06.559Z,1001.76
2022-09-26T02:18:06.535Z,1001.73
2022-09-26T02:19:06.577Z,1001.68
2022-09-26T02:20:06.657Z,1001.72
2022-09-26T02:21:06.504Z,1001.71
2022-09-26T02:22:06.586Z,1001.70
2022-09-26T02:23:06.482Z,1001.72
2022-09-26T02:24:06.469Z,1001.69
2022-09-26T02:25:06.482Z,1001.64
2022-09-26T02:26:06.463Z,1001.60
2022-09-26T02:27:06.476Z,1001.56
2022-09-26T02:28:06.445Z,1001.59
2022-09-26T02:29:06.498Z,1001.51
2022-09-26T02:30:06.408Z,1001.45
2022-09-26T02:31:06.393Z,1001.49
2022-09-26T02:32:06.487Z,1001.50
2022-09-26T02:33:06.380Z,1001.47
2022-09-26T02:34:06.377Z,1001.42
2022-09-26T02:35:06.353Z,1001.41
2022-09-26T02:36:06.371Z,1001.43
2022-09-26T02:37:06.333Z,1001.38
2022-09-26T02:38:06.327Z,1001.35
2022-09-26T02:39:06.408Z,1001.32
2022-09-26T02:40:06.301Z,1001.30
2022-09-26T02:41:06.280Z,1001.30
2022-09-26T02:42:06.268Z,1001.28
2022-09-26T02:43:06.255Z,1001.29
2022-09-26T02:44:06.246Z,1001.26
2022-09-26T02:45:06.259Z,1001.24
2022-09-26T02:46:06.304Z,1001.22
2022-09-26T02:47:06.220Z,1001.26
2022-09-26T02:48:06.208Z,1001.24
2022-09-26T02:49:06.259Z,1001.21
2022-09-26T02:50:06.197Z,1001.23
2022-09-26T02:51:06.173Z,1001.25
2022-09-26T02:52:06.212Z,1001.28
2022-09-26T02:53:06.151Z,1001.26
2022-09-26T02:54:06.151Z,1001.29
2022-09-26T02:55:06.120Z,1001.20
2022-09-26T02:56:06.129Z,1001.23
2022-09-26T02:57:06.118Z,1001.20
2022-09-26T02:58:06.090Z,1001.19
2022-09-26T02:59:06.151Z,1001.19
2022-09-26T03:00:06.085Z,1001.09
2022-09-26T03:01:06.143Z,1001.06
2022-09-26T03:02:06.049Z,1001.06
2022-09-26T03:03:06.060Z,1001.01
2022-09-26T03:04:06.035Z,1000.98
2022-09-26T03:05:06.133Z,1000.96
2022-09-26T03:06:06.022Z,1000.99
2022-09-26T03:07:06.004Z,1000.92
2022-09-26T03:08:06.010Z,1000.93
2022-09-26T03:09:06.043Z,1000.93
2022-09-26T03:10:05.959Z,1000.86
2022-09-26T03:11:05.964Z,1000.88
2022-09-26T03:12:05.937Z,1000.84
2022-09-26T03:13:05.946Z,1000.85
2022-09-26T03:14:05.923Z,1000.85
2022-09-26T03:15:05.904Z,1000.80
2022-09-26T03:16:05.991Z,1000.76
2022-09-26T03:17:05.886Z,1000.79
2022-09-26T03:18:05.876Z,1000.75
2022-09-26T03:19:05.939Z,1000.73
2022-09-26T03:20:05.844Z,1000.68
2022-09-26T03:21:05.853Z,1000.67
2022-09-26T03:22:05.842Z,1000.68
2022-09-26T03:23:05.815Z,1000.66
2022-09-26T03:24:05.825Z,1000.63
2022-09-26T03:25:05.799Z,1000.66
2022-09-26T03:26:05.776Z,1000.64
2022-09-26T03:27:05.779Z,1000.56
2022-09-26T03:28:05.771Z,1000.58
2022-09-26T03:29:05.821Z,1000.53
2022-09-26T03:30:05.755Z,1000.47
2022-09-26T03:31:05.735Z,1000.49
2022-09-26T03:32:05.785Z,1000.53
2022-09-26T03:33:05.702Z,1000.49
2022-09-26T03:34:05.687Z,1000.49
2022-09-26T03:35:05.689Z,1000.48
2022-09-26T03:36:05.670Z,1000.44
2022-09-26T03:37:05.669Z,1000.45
2022-09-26T03:38:05.655Z,1000.45
2022-09-26T03:39:05.641Z,1000.43
2022-09-26T03:40:05.733Z,1000.40
2022-09-26T03:41:05.620Z,1000.43
2022-09-26T03:42:05.627Z,1000.41
2022-09-26T03:43:05.588Z,1000.39
2022-09-26T03:44:05.577Z,1000.36
2022-09-26T03:45:05.569Z,1000.31
2022-09-26T03:46:05.627Z,1000.27
2022-09-26T03:47:05.541Z,1000.28
2022-09-26T03:48:05.538Z,1000.25
2022-09-26T03:49:05.539Z,1000.23
2022-09-26T03:50:05.514Z,1000.20
2022-09-26T03:51:05.502Z,1000.20
2022-09-26T03:52:05.507Z,1000.18
2022-09-26T03:53:05.474Z,1000.17
2022-09-26T03:54:05.484Z,1000.15
2022-09-26T03:55:05.457Z,1000.10
2022-09-26T03:56:05.470Z,1000.05
2022-09-26T03:57:05.455Z,1000.07
2022-09-26T03:58:05.431Z,1000.04
2022-09-26T03:59:05.506Z,1000.03
2022-09-26T04:00:05.416Z,999.92
2022-09-26T04:01:05.469Z,999.92
2022-09-26T04:02:05.444Z,999.94
2022-09-26T04:03:05.375Z,999.93
2022-09-26T04:04:05.369Z,999.98
2022-09-26T04:05:05.352Z,999.91
2022-09-26T04:06:05.333Z,999.94
2022-09-26T04:07:05.349Z,999.90
2022-09-26T04:08:05.311Z,999.95
2022-09-26T04:09:05.445Z,999.94
2022-09-26T04:10:05.298Z,999.90
2022-09-26T04:11:05.281Z,999.88
2022-09-26T04:12:05.298Z,999.93
2022-09-26T04:13:05.268Z,999.91
2022-09-26T04:14:05.257Z,999.94
2022-09-26T04:15:05.255Z,999.93
2022-09-26T04:16:05.307Z,999.91
2022-09-26T04:17:05.208Z,999.90
2022-09-26T04:18:05.214Z,999.87
2022-09-26T04:19:05.198Z,999.80
2022-09-26T04:20:05.221Z,999.79
2022-09-26T04:21:09.793Z,999.80
2022-09-26T04:22:05.161Z,999.80
2022-09-26T04:23:05.141Z,999.75
2022-09-26T04:24:05.160Z,999.72
2022-09-26T04:25:05.120Z,999.67
2022-09-26T04:26:05.144Z,999.69
2022-09-26T04:27:05.109Z,999.67
2022-09-26T04:28:05.114Z,999.66
2022-09-26T04:29:05.092Z,999.68
2022-09-26T04:30:05.070Z,999.62
2022-09-26T04:31:05.217Z,999.66
2022-09-26T04:32:05.124Z,999.64
2022-09-26T04:33:05.038Z,999.58
2022-09-26T04:34:05.064Z,999.53
2022-09-26T04:35:05.021Z,999.53
2022-09-26T04:36:05.016Z,999.57
2022-09-26T04:37:04.999Z,999.50
2022-09-26T04:38:05.011Z,999.48
2022-09-26T04:39:04.971Z,999.43
2022-09-26T04:40:04.989Z,999.43
2022-09-26T04:41:05.021Z,999.47
2022-09-26T04:42:04.940Z,999.42
2022-09-26T04:43:04.944Z,999.39
2022-09-26T04:44:04.967Z,999.40
2022-09-26T04:45:04.917Z,999.38
2022-09-26T04:46:04.998Z,999.37
2022-09-26T04:47:04.876Z,999.35
2022-09-26T04:48:04.896Z,999.37
2022-09-26T04:49:04.867Z,999.30
2022-09-26T04:50:04.854Z,999.32
2022-09-26T04:51:04.839Z,999.27
2022-09-26T04:52:04.826Z,999.26
2022-09-26T04:53:04.837Z,999.26
2022-09-26T04:54:04.806Z,999.27
2022-09-26T04:55:04.811Z,999.27
2022-09-26T04:56:04.791Z,999.25
2022-09-26T04:57:04.802Z,999.24
2022-09-26T04:58:04.781Z,999.21
2022-09-26T04:59:04.745Z,999.23
2022-09-26T05:00:04.759Z,999.21
2022-09-26T05:01:04.888Z,999.20
2022-09-26T05:02:04.783Z,999.17
2022-09-26T05:03:04.711Z,999.13
2022-09-26T05:04:04.725Z,999.14
2022-09-26T05:05:04.710Z,999.13
2022-09-26T05:06:04.702Z,999.13
2022-09-26T05:07:04.686Z,999.10
2022-09-26T05:08:04.661Z,999.14
2022-09-26T05:09:04.658Z,999.09
2022-09-26T05:10:04.628Z,999.07
2022-09-26T05:11:04.639Z,999.10
2022-09-26T05:12:04.625Z,999.11
2022-09-26T05:13:04.636Z,999.09
2022-09-26T05:14:04.584Z,999.06
2022-09-26T05:15:04.609Z,999.10
2022-09-26T05:16:04.659Z,999.09
2022-09-26T05:17:04.569Z,999.07
2022-09-26T05:18:04.533Z,999.05
2022-09-26T05:19:04.598Z,999.06
2022-09-26T05:20:04.551Z,999.05
2022-09-26T05:21:04.531Z,999.05
2022-09-26T05:22:04.493Z,999.08
2022-09-26T05:23:04.482Z,999.05
2022-09-26T05:24:04.492Z,999.05
2022-09-26T05:25:04.463Z,999.04
2022-09-26T05:26:04.479Z,999.04
2022-09-26T05:27:04.454Z,999.05
2022-09-26T05:28:04.422Z,998.94
2022-09-26T05:29:08.522Z,999.00
2022-09-26T05:30:04.433Z,998.92
2022-09-26T05:31:04.501Z,998.98
2022-09-26T05:32:04.504Z,998.94
2022-09-26T05:33:04.366Z,998.90
2022-09-26T05:34:04.409Z,998.90
2022-09-26T05:35:04.369Z,998.87
2022-09-26T05:36:04.372Z,998.84
2022-09-26T05:37:04.321Z,998.85
2022-09-26T05:38:04.329Z,998.84
2022-09-26T05:39:04.317Z,998.84
2022-09-26T05:40:04.336Z,998.82
2022-09-26T05:41:04.331Z,998.85
2022-09-26T05:42:04.280Z,998.83
2022-09-26T05:43:04.263Z,998.83
2022-09-26T05:44:04.253Z,998.79
2022-09-26T05:45:04.352Z,998.80
2022-09-26T05:46:04.237Z,998.78
2022-09-26T05:47:04.343Z,998.81
2022-09-26T05:48:04.233Z,998.77
2022-09-26T05:49:04.228Z,998.78
2022-09-26T05:50:04.195Z,998.75
2022-09-26T05:51:04.175Z,998.75
2022-09-26T05:52:04.192Z,998.77
2022-09-26T05:53:04.163Z,998.76
2022-09-26T05:54:04.158Z,998.76
2022-09-26T05:55:04.145Z,998.72
2022-09-26T05:56:04.116Z,998.69
2022-09-26T05:57:04.158Z,998.70
2022-09-26T05:58:04.135Z,998.66
2022-09-26T05:59:04.099Z,998.66
2022-09-26T06:00:04.177Z,998.69
2022-09-26T06:01:04.237Z,998.69
2022-09-26T06:02:04.120Z,998.66
2022-09-26T06:03:04.068Z,998.63
2022-09-26T06:04:04.092Z,998.68
2022-09-26T06:05:04.904Z,998.64
2022-09-26T06:06:04.003Z,998.65
2022-09-26T06:07:04.007Z,998.64
2022-09-26T06:08:04.078Z,998.65
2022-09-26T06:09:03.983Z,998.62
2022-09-26T06:10:04.021Z,998.63
2022-09-26T06:11:03.964Z,998.60
2022-09-26T06:12:03.989Z,998.61
2022-09-26T06:13:03.966Z,998.60
2022-09-26T06:14:03.919Z,998.59
2022-09-26T06:15:03.898Z,998.55
2022-09-26T06:16:03.961Z,998.56
2022-09-26T06:17:03.886Z,998.50
2022-09-26T06:18:03.887Z,998.51
2022-09-26T06:19:03.856Z,998.48
2022-09-26T06:20:03.864Z,998.39
2022-09-26T06:21:03.844Z,998.43
2022-09-26T06:22:03.858Z,998.40
2022-09-26T06:23:03.833Z,998.42
2022-09-26T06:24:03.824Z,998.40
2022-09-26T06:25:04.914Z,998.36
2022-09-26T06:26:03.793Z,998.37
2022-09-26T06:27:03.805Z,998.39
2022-09-26T06:28:03.772Z,998.40
2022-09-26T06:29:03.754Z,998.33
2022-09-26T06:30:03.754Z,998.36
2022-09-26T06:31:03.739Z,998.34
2022-09-26T06:32:03.862Z,998.30
2022-09-26T06:33:03.704Z,998.28
2022-09-26T06:34:03.694Z,998.23
2022-09-26T06:35:03.702Z,998.24
2022-09-26T06:36:03.740Z,998.21
2022-09-26T06:37:03.678Z,998.19
2022-09-26T06:38:03.649Z,998.16
2022-09-26T06:39:03.642Z,998.11
2022-09-26T06:40:03.778Z,998.14
2022-09-26T06:41:03.740Z,998.10
2022-09-26T06:42:03.823Z,998.08
2022-09-26T06:43:03.617Z,998.10
2022-09-26T06:44:03.614Z,998.04
2022-09-26T06:45:03.585Z,998.07
2022-09-26T06:46:03.557Z,998.02
2022-09-26T06:47:03.598Z,998.06
2022-09-26T06:48:03.547Z,998.06
2022-09-26T06:49:03.594Z,998.03
2022-09-26T06:50:04.299Z,998.00
2022-09-26T06:51:04.309Z,997.94
2022-09-26T06:52:03.520Z,997.94
2022-09-26T06:53:11.871Z,997.90
2022-09-26T06:54:04.479Z,997.88
2022-09-26T06:55:03.579Z,997.93
2022-09-26T06:56:03.471Z,997.94
2022-09-26T06:57:03.438Z,997.90
2022-09-26T06:58:03.483Z,997.88
2022-09-26T06:59:03.415Z,997.86
2022-09-26T07:00:03.402Z,997.87
2022-09-26T07:01:03.542Z,997.83
2022-09-26T07:02:03.566Z,997.74
2022-09-26T07:03:03.363Z,997.76
2022-09-26T07:04:03.375Z,997.67
2022-09-26T07:05:03.353Z,997.66
2022-09-26T07:06:03.338Z,997.69
2022-09-26T07:07:03.393Z,997.62
2022-09-26T07:08:03.333Z,997.68
2022-09-26T07:09:06.395Z,997.64
2022-09-26T07:10:04.279Z,997.56
2022-09-26T07:11:28.182Z,997.51
2022-09-26T07:12:17.703Z,997.51
2022-09-26T07:13:04.264Z,997.53
2022-09-26T07:14:03.274Z,997.47
2022-09-26T07:15:03.271Z,997.41
2022-09-26T07:16:03.307Z,997.42
2022-09-26T07:17:03.242Z,997.46
2022-09-26T07:18:03.270Z,997.45
2022-09-26T07:19:03.198Z,997.45
2022-09-26T07:20:03.167Z,997.44
2022-09-26T07:21:03.172Z,997.43
2022-09-26T07:22:03.152Z,997.43
2022-09-26T07:23:03.152Z,997.42
2022-09-26T07:24:03.160Z,997.37
2022-09-26T07:25:03.143Z,997.39
2022-09-26T07:26:03.229Z,997.35
2022-09-26T07:27:03.110Z,997.36
2022-09-26T07:28:03.077Z,997.33
2022-09-26T07:29:03.109Z,997.30
2022-09-26T07:30:03.072Z,997.33
2022-09-26T07:31:03.165Z,997.31
2022-09-26T07:32:03.082Z,997.32
2022-09-26T07:33:03.045Z,997.35
2022-09-26T07:34:03.021Z,997.23
2022-09-26T07:35:03.037Z,997.25
2022-09-26T07:36:05.438Z,997.25
2022-09-26T07:37:02.977Z,997.24
2022-09-26T07:38:02.975Z,997.21
2022-09-26T07:39:02.952Z,997.21
2022-09-26T07:40:03.000Z,997.18
2022-09-26T07:41:03.018Z,997.16
2022-09-26T07:42:03.012Z,997.12
2022-09-26T07:43:19.651Z,997.12
2022-09-26T07:45:01.864Z,997.14
2022-09-26T07:46:03.893Z,997.20
2022-09-26T07:47:03.015Z,997.15
2022-09-26T07:48:03.786Z,997.19
2022-09-26T07:49:02.886Z,997.15
2022-09-26T07:50:02.852Z,997.22
2022-09-26T07:51:08.414Z,997.13
2022-09-26T07:52:03.815Z,997.16
2022-09-26T07:53:02.810Z,997.16
2022-09-26T07:54:02.929Z,997.17
2022-09-26T07:55:02.805Z,997.18
2022-09-26T07:56:02.787Z,997.15
2022-09-26T07:57:02.743Z,997.20
2022-09-26T07:58:02.740Z,997.16
2022-09-26T07:59:02.768Z,997.13
2022-09-26T08:00:02.727Z,997.14
2022-09-26T08:01:02.697Z,997.09
2022-09-26T08:02:02.799Z,997.09
2022-09-26T08:03:02.715Z,997.01
2022-09-26T08:04:02.710Z,997.07
2022-09-26T08:05:02.679Z,997.08
2022-09-26T08:06:02.653Z,997.11
2022-09-26T08:07:02.660Z,997.07
2022-09-26T08:08:02.616Z,997.10
2022-09-26T08:09:02.641Z,997.09
2022-09-26T08:10:02.831Z,997.10
2022-09-26T08:11:04.268Z,997.07
2022-09-26T08:12:02.667Z,997.07
2022-09-26T08:13:02.592Z,997.00
2022-09-26T08:14:02.591Z,997.04
2022-09-26T08:15:02.645Z,996.99
2022-09-26T08:16:02.699Z,996.98
2022-09-26T08:17:02.530Z,997.01
2022-09-26T08:18:02.564Z,996.94
2022-09-26T08:19:02.511Z,996.94
2022-09-26T08:20:02.486Z,996.91
2022-09-26T08:21:02.509Z,996.98
2022-09-26T08:22:02.527Z,996.95
2022-09-26T08:23:02.509Z,996.95
2022-09-26T08:24:02.513Z,996.95
2022-09-26T08:25:02.434Z,996.88
2022-09-26T08:26:02.425Z,996.83
2022-09-26T08:27:02.458Z,996.75
2022-09-26T08:28:03.311Z,996.84
2022-09-26T08:29:02.449Z,996.79
2022-09-26T08:30:02.417Z,996.79
2022-09-26T08:31:03.352Z,996.83
2022-09-26T08:32:03.322Z,996.82
2022-09-26T08:33:02.360Z,996.79
2022-09-26T08:34:02.452Z,996.68
2022-09-26T08:35:02.817Z,996.78
2022-09-26T08:36:02.390Z,996.72
2022-09-26T08:37:02.417Z,996.74
2022-09-26T08:38:02.369Z,996.68
2022-09-26T08:39:02.276Z,996.80
2022-09-26T08:40:02.272Z,996.75
2022-09-26T08:41:02.403Z,996.75
2022-09-26T08:42:02.794Z,996.74
2022-09-26T08:43:02.407Z,996.78
2022-09-26T08:44:02.250Z,996.80
2022-09-26T08:45:02.216Z,996.86
2022-09-26T08:46:02.327Z,996.84
2022-09-26T08:47:02.289Z,996.81
2022-09-26T08:48:02.183Z,996.69
2022-09-26T08:49:02.405Z,996.72
2022-09-26T08:50:02.162Z,996.80
2022-09-26T08:51:02.138Z,996.89
2022-09-26T08:52:02.148Z,996.95
2022-09-26T08:53:02.132Z,996.94
2022-09-26T08:54:02.101Z,996.95
2022-09-26T08:55:02.109Z,996.90
2022-09-26T08:56:02.098Z,996.95
2022-09-26T08:57:02.099Z,996.94
2022-09-26T08:58:02.073Z,996.94
2022-09-26T08:59:02.067Z,996.91
2022-09-26T09:00:02.174Z,996.91
2022-09-26T09:01:02.044Z,996.89
2022-09-26T09:02:02.113Z,996.87
2022-09-26T09:03:02.077Z,996.90
2022-09-26T09:04:01.985Z,996.87
2022-09-26T09:05:01.982Z,996.87
2022-09-26T09:06:02.014Z,996.88
2022-09-26T09:07:01.967Z,996.84
2022-09-26T09:08:01.949Z,996.84
2022-09-26T09:09:01.954Z,996.88
2022-09-26T09:10:01.915Z,996.79
2022-09-26T09:11:01.938Z,996.82
2022-09-26T09:12:02.057Z,996.78
2022-09-26T09:13:01.891Z,996.80
2022-09-26T09:14:01.890Z,996.76
2022-09-26T09:15:24.141Z,996.82
2022-09-26T09:16:03.007Z,996.79
2022-09-26T09:17:01.856Z,996.85
2022-09-26T09:18:01.853Z,996.81
2022-09-26T09:19:01.827Z,996.84
2022-09-26T09:20:01.859Z,996.88
2022-09-26T09:21:01.820Z,996.85
2022-09-26T09:22:01.807Z,996.81
2022-09-26T09:23:01.899Z,996.83
2022-09-26T09:24:01.767Z,996.83
2022-09-26T09:25:01.789Z,996.84
2022-09-26T09:28:08.096Z,996.73
2022-09-26T09:29:02.723Z,996.79
2022-09-26T09:30:03.227Z,996.82
2022-09-26T09:31:02.027Z,996.80
2022-09-26T09:32:01.717Z,996.79
2022-09-26T09:33:01.674Z,996.85
2022-09-26T09:34:01.681Z,996.75
2022-09-26T09:35:01.649Z,996.80
2022-09-26T09:36:01.640Z,996.80
2022-09-26T09:37:01.617Z,996.76
2022-09-26T09:38:01.601Z,996.79
2022-09-26T09:39:01.619Z,996.74
2022-09-26T09:40:01.588Z,996.79
2022-09-26T09:41:01.687Z,996.71
2022-09-26T09:42:01.595Z,996.76
2022-09-26T09:43:01.554Z,996.77
2022-09-26T09:44:01.539Z,996.67
2022-09-26T09:45:01.529Z,996.73
2022-09-26T09:46:01.658Z,996.72
2022-09-26T09:47:01.604Z,996.72
2022-09-26T09:48:01.529Z,996.69
2022-09-26T09:49:01.496Z,996.70
2022-09-26T09:50:01.489Z,996.71
2022-09-26T09:51:02.297Z,996.64
2022-09-26T09:52:01.462Z,996.60
2022-09-26T09:53:01.447Z,996.62
2022-09-26T09:54:01.435Z,996.62
2022-09-26T09:55:01.419Z,996.64
2022-09-26T09:56:01.410Z,996.59
2022-09-26T09:57:01.397Z,996.62
2022-09-26T09:58:01.851Z,996.64
2022-09-26T09:59:01.403Z,996.58
2022-09-26T10:00:02.372Z,996.58
2022-09-26T10:01:01.345Z,996.49
2022-09-26T10:02:01.343Z,996.50
2022-09-26T10:03:01.547Z,996.45
2022-09-26T10:04:01.351Z,996.46
2022-09-26T10:05:01.317Z,996.35
2022-09-26T10:06:01.804Z,996.41
2022-09-26T10:07:01.283Z,996.45
2022-09-26T10:08:01.288Z,996.44
2022-09-26T10:09:35.826Z,996.41
2022-09-26T10:10:02.252Z,996.40
2022-09-26T10:11:01.319Z,996.40
2022-09-26T10:12:01.227Z,996.36
2022-09-26T10:13:01.243Z,996.34
2022-09-26T10:14:01.223Z,996.34
2022-09-26T10:15:01.189Z,996.38
2022-09-26T10:16:01.300Z,996.34
2022-09-26T10:17:01.816Z,996.36
2022-09-26T10:18:23.472Z,996.35
2022-09-26T10:19:03.561Z,996.32
2022-09-26T10:20:01.152Z,996.27
2022-09-26T10:21:01.119Z,996.30
2022-09-26T10:22:01.107Z,996.28
2022-09-26T10:23:01.092Z,996.20
2022-09-26T10:24:01.084Z,996.21
2022-09-26T10:25:01.070Z,996.20
2022-09-26T10:26:01.069Z,996.16
2022-09-26T10:27:01.097Z,996.12
2022-09-26T10:28:01.041Z,996.19
2022-09-26T10:29:01.036Z,996.10
2022-09-26T10:30:01.009Z,996.14
2022-09-26T10:31:01.190Z,996.15
2022-09-26T10:32:00.992Z,996.12
2022-09-26T10:33:00.999Z,996.09
2022-09-26T10:34:01.021Z,995.99
2022-09-26T10:35:00.989Z,996.11
2022-09-26T10:36:00.972Z,996.11
2022-09-26T10:37:00.986Z,996.14
2022-09-26T10:38:00.926Z,996.10
2022-09-26T10:39:00.919Z,996.10
2022-09-26T10:40:00.891Z,996.03
2022-09-26T10:41:00.966Z,996.04
2022-09-26T10:42:00.905Z,995.94
2022-09-26T10:43:00.883Z,995.99
2022-09-26T10:44:00.929Z,996.01
2022-09-26T10:45:00.858Z,995.99
2022-09-26T10:46:00.906Z,995.99
2022-09-26T10:47:00.882Z,995.96
2022-09-26T10:48:00.819Z,995.95
2022-09-26T10:49:00.791Z,995.93
2022-09-26T10:50:00.791Z,995.89
2022-09-26T10:51:00.784Z,995.95
2022-09-26T10:52:01.503Z,995.91
2022-09-26T10:53:00.754Z,995.91
2022-09-26T10:54:00.729Z,995.93
2022-09-26T10:55:00.729Z,995.92
2022-09-26T10:56:00.756Z,995.87
2022-09-26T10:57:00.732Z,995.79
2022-09-26T10:58:00.696Z,995.84
2022-09-26T10:59:00.670Z,995.75
2022-09-26T11:00:00.672Z,995.75
2022-09-26T11:01:00.697Z,995.77
2022-09-26T11:02:00.798Z,995.78
2022-09-26T11:03:00.640Z,995.72
2022-09-26T11:04:00.704Z,995.71
2022-09-26T11:05:00.616Z,995.73
2022-09-26T11:06:00.595Z,995.69
2022-09-26T11:07:00.611Z,995.68
2022-09-26T11:08:00.604Z,995.71
2022-09-26T11:09:00.576Z,995.66
2022-09-26T11:10:00.558Z,995.68
2022-09-26T11:11:00.540Z,995.66
2022-09-26T11:12:00.552Z,995.64
2022-09-26T11:13:00.524Z,995.62
2022-09-26T11:14:00.596Z,995.62
2022-09-26T11:15:00.594Z,995.62
2022-09-26T11:16:00.675Z,995.58
2022-09-26T11:17:00.495Z,995.57
2022-09-26T11:18:00.504Z,995.50
2022-09-26T11:19:00.466Z,995.47
2022-09-26T11:20:00.436Z,995.45
2022-09-26T11:21:00.442Z,995.48
2022-09-26T11:22:05.785Z,995.45
2022-09-26T11:23:01.418Z,995.44
2022-09-26T11:24:00.445Z,995.42
2022-09-26T11:25:00.388Z,995.30
2022-09-26T11:26:00.397Z,995.34
2022-09-26T11:27:00.374Z,995.26
2022-09-26T11:28:00.400Z,995.29
2022-09-26T11:29:00.342Z,995.26
2022-09-26T11:30:00.326Z,995.20
2022-09-26T11:31:00.442Z,995.16
2022-09-26T11:32:00.573Z,995.11
2022-09-26T11:33:00.289Z,995.08
2022-09-26T11:34:00.302Z,995.04
2022-09-26T11:35:00.303Z,995.01
2022-09-26T11:36:00.270Z,995.00
2022-09-26T11:37:00.288Z,994.85
2022-09-26T11:38:00.249Z,994.88
2022-09-26T11:39:00.228Z,994.91
2022-09-26T11:40:00.251Z,994.85
2022-09-26T11:41:00.330Z,994.84
2022-09-26T11:42:00.187Z,994.71
2022-09-26T11:43:00.195Z,994.74
2022-09-26T11:44:00.186Z,994.71
2022-09-26T11:45:00.197Z,994.69
2022-09-26T11:46:00.252Z,994.68
2022-09-26T11:47:00.127Z,994.66
2022-09-26T11:48:00.141Z,994.68
2022-09-26T11:49:00.112Z,994.72
2022-09-26T11:50:00.193Z,994.69
2022-09-26T11:51:00.100Z,994.63
2022-09-26T11:52:00.083Z,994.65
2022-09-26T11:53:00.085Z,994.59
2022-09-26T11:54:00.048Z,994.51
2022-09-26T11:55:00.069Z,994.53
2022-09-26T11:56:00.098Z,994.50
2022-09-26T11:57:00.048Z,994.51
2022-09-26T11:58:03.235Z,994.48
2022-09-26T11:59:00.068Z,994.45
2022-09-26T12:00:00.014Z,994.50
2022-09-26T12:00:59.979Z,994.42
2022-09-26T12:01:59.993Z,994.44
2022-09-26T12:03:00.073Z,994.43
2022-09-26T12:04:00.161Z,994.23
2022-09-26T12:04:59.943Z,994.37
2022-09-26T12:05:59.923Z,994.31
2022-09-26T12:06:59.933Z,994.30
2022-09-26T12:07:59.929Z,994.31
2022-09-26T12:08:59.908Z,994.17
2022-09-26T12:09:59.896Z,994.23
2022-09-26T12:10:59.911Z,994.14
2022-09-26T12:11:59.882Z,994.10
2022-09-26T12:12:59.879Z,994.09
2022-09-26T12:13:59.852Z,994.13
2022-09-26T12:14:59.827Z,994.05
2022-09-26T12:15:59.904Z,993.95
2022-09-26T12:16:59.814Z,993.98
2022-09-26T12:17:59.781Z,993.95
2022-09-26T12:18:59.800Z,993.91
2022-09-26T12:19:59.774Z,993.94
2022-09-26T12:20:59.754Z,993.96
2022-09-26T12:21:59.750Z,993.97
2022-09-26T12:22:59.758Z,993.89
2022-09-26T12:23:59.725Z,993.90